createdAt,value
2022-11-24T00:29:08.720Z,98.12
2022-11-24T00:32:36.987Z,98.40
2022-11-24T00:35:40.434Z,97.79
2022-11-24T00:39:41.553Z,97.16
2022-11-24T00:42:45.355Z,97.81
2022-11-24T00:45:48.912Z,97.82
2022-11-24T00:48:55.065Z,97.79
2022-11-24T00:51:58.972Z,97.40
2022-11-24T00:56:27.249Z,97.95
2022-11-24T01:26:15.475Z,97.04
2022-11-24T01:33:30.180Z,97.56
2022-11-24T01:36:32.796Z,97.59
2022-11-24T01:39:36.319Z,97.47
2022-11-24T01:42:50.764Z,97.41
2022-11-24T01:45:54.812Z,96.97
2022-11-24T01:49:13.718Z,96.65
2022-11-24T01:52:22.533Z,97.13
2022-11-24T01:55:32.914Z,97.25
2022-11-24T01:58:41.291Z,96.78
2022-11-24T02:01:44.314Z,97.33
2022-11-24T02:05:20.406Z,97.19
2022-11-24T02:08:42.365Z,97.08
2022-11-24T02:20:18.583Z,96.76
2022-11-24T02:20:21.777Z,96.61
2022-11-24T02:23:50.265Z,97.29
2022-11-24T02:26:53.131Z,97.25
2022-11-24T02:29:56.564Z,97.52
2022-11-24T02:32:59.560Z,98.58
2022-11-24T02:36:02.770Z,97.88
2022-11-24T02:39:15.545Z,97.89
2022-11-24T02:42:18.745Z,97.62
2022-11-24T02:45:22.397Z,97.33
2022-11-24T02:48:25.414Z,97.61
2022-11-24T02:51:28.661Z,97.70
2022-11-24T02:54:32.063Z,98.20
2022-11-24T02:57:34.910Z,98.79
2022-11-24T03:00:38.033Z,98.63
2022-11-24T03:03:40.484Z,98.88
2022-11-24T03:06:44.670Z,97.96
2022-11-24T03:09:47.584Z,97.62
2022-11-24T03:12:50.592Z,97.87
2022-11-24T03:15:53.602Z,97.87
2022-11-24T03:18:56.673Z,98.09
2022-11-24T03:21:59.994Z,97.55
2022-11-24T03:25:03.154Z,97.08
2022-11-24T03:28:08.244Z,97.78
2022-11-24T03:31:12.343Z,96.83
2022-11-24T03:34:15.070Z,96.97
2022-11-24T03:37:18.076Z,97.45
2022-11-24T03:40:20.884Z,97.32
2022-11-24T03:43:23.891Z,96.90
2022-11-24T03:46:27.794Z,96.35
2022-11-24T03:49:30.855Z,96.30
2022-11-24T03:52:33.526Z,96.00
2022-11-24T03:55:36.307Z,95.61
2022-11-24T03:58:38.819Z,96.23
2022-11-24T04:01:41.999Z,96.06
2022-11-24T04:04:49.836Z,95.47
2022-11-24T04:07:56.777Z,95.46
2022-11-24T04:10:59.598Z,95.12
2022-11-24T04:14:02.474Z,94.74
2022-11-24T04:17:05.460Z,94.79
2022-11-24T04:20:09.309Z,94.94
2022-11-24T04:23:11.985Z,94.32
2022-11-24T04:26:16.195Z,94.52
2022-11-24T04:29:19.011Z,94.87
2022-11-24T04:32:22.080Z,95.13
2022-11-24T04:35:25.234Z,94.70
2022-11-24T04:39:23.057Z,95.16
2022-11-24T04:42:36.870Z,95.06
2022-11-24T04:46:18.421Z,94.99
2022-11-24T05:04:28.140Z,94.78
2022-11-24T05:07:31.323Z,94.77
2022-11-24T05:10:38.261Z,95.04
2022-11-24T05:13:41.395Z,94.04
2022-11-24T05:16:44.649Z,94.00
2022-11-24T05:19:47.279Z,94.49
2022-11-24T05:22:50.688Z,94.14
2022-11-24T05:25:53.297Z,94.21
2022-11-24T05:28:56.479Z,93.92
2022-11-24T05:31:59.231Z,93.55
2022-11-24T05:35:02.671Z,93.60
2022-11-24T05:38:05.214Z,93.76
2022-11-24T05:41:08.969Z,93.63
2022-11-24T05:44:11.749Z,93.37
2022-11-24T05:47:14.887Z,93.03
2022-11-24T05:50:19.740Z,93.48
2022-11-24T05:53:23.604Z,93.35
2022-11-24T05:56:26.343Z,93.32
2022-11-24T05:59:29.479Z,93.23
2022-11-24T06:02:32.636Z,93.31
2022-11-24T06:05:36.484Z,93.05
2022-11-24T06:09:13.627Z,93.11
2022-11-24T06:12:48.490Z,93.27
2022-11-24T06:22:19.940Z,93.09
2022-11-24T06:38:04.632Z,93.74
2022-11-24T06:41:19.436Z,93.92
2022-11-24T06:44:40.208Z,94.03
2022-11-24T06:47:43.074Z,94.62
2022-11-24T06:50:45.524Z,93.92
2022-11-24T06:53:48.518Z,93.89
2022-11-24T06:56:56.661Z,93.37
2022-11-24T06:59:59.604Z,93.82
2022-11-24T07:03:02.313Z,93.10
2022-11-24T07:06:05.780Z,93.66
2022-11-24T07:09:10.200Z,93.81
2022-11-24T07:12:13.352Z,92.94
2022-11-24T07:15:16.824Z,93.09
2022-11-24T07:18:20.154Z,93.63
2022-11-24T08:04:12.240Z,93.09
2022-11-24T08:12:29.797Z,92.59
2022-11-24T08:15:35.085Z,92.56
2022-11-24T08:18:39.081Z,92.35
2022-11-24T08:21:44.257Z,92.06
2022-11-24T09:32:12.501Z,92.11
2022-11-24T09:35:15.534Z,92.68
2022-11-24T11:06:38.969Z,91.76
2022-11-24T12:39:08.421Z,91.08
2022-11-24T12:42:59.998Z,90.62
2022-11-24T17:01:46.856Z,91.45
2022-11-24T17:04:52.254Z,91.63
2022-11-24T17:07:54.694Z,91.16
2022-11-24T17:10:56.898Z,91.06
2022-11-24T17:13:59.373Z,91.57
2022-11-24T17:17:01.708Z,90.77
2022-11-24T17:20:05.115Z,91.06
2022-11-24T17:23:07.356Z,91.21
2022-11-24T17:26:17.438Z,91.47
2022-11-24T17:29:20.006Z,91.33
2022-11-24T17:32:22.528Z,91.45
2022-11-24T17:35:24.587Z,91.24
2022-11-24T17:38:28.302Z,91.22
2022-11-24T17:41:31.023Z,91.59
2022-11-24T17:44:33.837Z,91.33
2022-11-24T17:47:36.166Z,92.11
2022-11-24T17:50:38.487Z,91.74
2022-11-24T17:53:42.582Z,92.14
2022-11-24T17:56:45.965Z,91.70
2022-11-24T17:59:48.130Z,92.48
2022-11-24T18:02:50.610Z,92.29
2022-11-24T18:05:53.007Z,91.80
2022-11-24T18:08:58.763Z,92.01
2022-11-24T18:12:01.031Z,91.85
2022-11-24T18:15:03.774Z,92.20
2022-11-24T18:18:05.910Z,92.44
2022-11-24T18:21:15.103Z,92.53
2022-11-24T18:24:22.548Z,91.84
2022-11-24T18:27:26.467Z,91.99
2022-11-24T18:30:28.583Z,92.93
2022-11-24T18:33:31.141Z,92.49
2022-11-24T18:36:34.564Z,92.20
2022-11-24T18:39:37.179Z,92.39
2022-11-24T18:42:39.831Z,92.58
2022-11-24T18:45:42.428Z,92.67
2022-11-24T18:48:45.383Z,92.67
2022-11-24T18:51:47.913Z,92.74
2022-11-24T18:54:50.169Z,92.68
2022-11-24T18:57:52.435Z,92.75
2022-11-24T19:00:55.133Z,92.86
2022-11-24T19:03:59.480Z,93.13
2022-11-24T19:07:01.609Z,92.95
2022-11-24T19:10:04.330Z,93.01
2022-11-24T19:13:06.436Z,93.09
2022-11-24T19:16:12.773Z,93.06
2022-11-24T19:19:16.495Z,93.13
2022-11-24T19:22:19.008Z,92.51
2022-11-24T19:25:21.556Z,92.48
2022-11-24T19:28:24.566Z,92.37
2022-11-24T19:31:26.940Z,92.34
2022-11-24T19:34:29.554Z,92.53
2022-11-24T19:37:31.712Z,92.54
2022-11-24T19:40:34.095Z,93.04
2022-11-24T19:43:38.071Z,92.69
2022-11-24T19:46:41.219Z,92.70
2022-11-24T19:49:43.426Z,92.64
2022-11-24T19:52:47.846Z,92.70
2022-11-24T19:55:50.064Z,93.39
2022-11-24T19:58:53.970Z,92.96
2022-11-24T20:01:57.901Z,93.35
2022-11-24T20:05:00.766Z,94.04
2022-11-24T20:08:09.612Z,94.44
2022-11-24T20:11:17.419Z,95.53
2022-11-24T20:14:20.643Z,95.25
2022-11-24T20:17:25.946Z,95.31
2022-11-24T20:20:28.266Z,95.43
2022-11-24T20:23:30.811Z,95.29
2022-11-24T20:26:36.603Z,95.30
2022-11-24T20:29:45.216Z,94.90
2022-11-24T20:32:48.956Z,94.85
2022-11-24T20:35:51.447Z,94.97
2022-11-24T20:38:54.312Z,94.38
2022-11-24T20:41:56.914Z,94.74
2022-11-24T20:45:01.340Z,94.96
2022-11-24T20:48:05.731Z,95.17
2022-11-24T20:51:14.547Z,95.96
2022-11-24T20:54:24.511Z,95.24
2022-11-24T20:57:26.661Z,95.25
2022-11-24T21:00:29.275Z,96.49
2022-11-24T21:03:31.726Z,96.94
2022-11-24T21:06:35.605Z,96.60
2022-11-24T21:09:38.733Z,96.39
2022-11-24T21:12:40.997Z,96.02
2022-11-24T21:15:43.442Z,95.70
2022-11-24T21:18:47.804Z,95.41
2022-11-24T21:21:50.402Z,95.12
2022-11-24T21:24:52.903Z,94.96
2022-11-24T21:27:55.098Z,94.88
2022-11-24T21:31:05.805Z,95.11
2022-11-24T21:34:09.054Z,94.85
2022-11-24T21:37:11.631Z,94.78
2022-11-24T21:40:15.206Z,94.13
2022-11-24T21:43:17.808Z,94.42
2022-11-24T21:46:20.070Z,93.85
2022-11-24T21:49:22.710Z,93.88
2022-11-24T21:52:25.110Z,94.69
2022-11-24T21:55:27.747Z,94.44
2022-11-24T21:58:30.113Z,93.81
2022-11-24T22:01:32.937Z,93.63
2022-11-24T22:04:35.509Z,94.16
2022-11-24T22:07:38.083Z,93.74
2022-11-24T22:10:40.207Z,93.94
2022-11-24T22:13:43.667Z,93.75
2022-11-24T22:16:46.260Z,93.88
2022-11-24T22:19:48.616Z,94.05
2022-11-24T22:22:50.586Z,93.62
2022-11-24T22:25:52.862Z,93.67
2022-11-24T22:28:55.863Z,93.46
2022-11-24T22:31:58.506Z,93.18
2022-11-24T22:35:00.648Z,93.42
2022-11-24T22:38:03.083Z,93.26
2022-11-24T22:41:16.533Z,93.38
2022-11-24T22:44:18.833Z,93.49
2022-11-24T22:47:20.929Z,93.71
2022-11-24T22:50:23.293Z,94.00
2022-11-24T22:53:25.346Z,94.24
2022-11-24T22:56:28.258Z,93.96
2022-11-24T22:59:30.390Z,93.98
2022-11-24T23:02:32.807Z,94.37
2022-11-24T23:05:35.123Z,95.30
2022-11-24T23:08:37.616Z,94.59
2022-11-24T23:11:40.902Z,94.68
2022-11-24T23:14:43.234Z,94.78
2022-11-24T23:17:45.350Z,94.68
2022-11-24T23:20:47.975Z,95.14
2022-11-24T23:23:50.886Z,94.79
2022-11-24T23:26:53.388Z,94.83
2022-11-24T23:29:55.511Z,94.61
2022-11-24T23:32:57.850Z,94.51
2022-11-24T23:36:02.194Z,94.82
2022-11-24T23:39:10.848Z,94.99
2022-11-24T23:42:13.365Z,94.87
2022-11-24T23:45:15.690Z,94.53
2022-11-24T23:48:18.000Z,95.06
2022-11-24T23:51:23.451Z,94.72
2022-11-24T23:57:45.221Z,94.59
